CST,Max TemperatureF,Mean TemperatureF,Min TemperatureF,Max Dew PointF,MeanDew PointF,Min DewpointF,Max Humidity, Mean Humidity, Min Humidity, Max Sea Level PressureIn, Mean Sea Level PressureIn, Min Sea Level PressureIn, Max VisibilityMiles, Mean VisibilityMiles, Min VisibilityMiles, Max Wind SpeedMPH, Mean Wind SpeedMPH, Max Gust SpeedMPH,PrecipitationIn, CloudCover, Events, WindDirDegrees
2012-8-1,95,83,71,73,69,64,88,58,30,29.95,29.89,29.83,12,8,6,27,8,,0.00,4,,123
2012-8-2,91,82,74,75,71,68,94,63,41,29.91,29.86,29.81,12,8,6,16,7,,0.00,7,,126
2012-8-3,96,84,71,73,68,66,94,54,29,29.90,29.84,29.77,12,7,6,27,10,,0.00,5,,80
2012-8-4,94,82,71,72,69,66,88,59,36,29.89,29.84,29.78,12,8,6,31,10,,0.00,5,Rain,66
2012-8-5,96,84,72,73,67,63,88,50,27,29.89,29.85,29.79,12,8,6,16,8,,0.00,7,,56
2012-8-6,92,80,69,74,71,68,94,68,40,29.93,29.86,29.79,12,8,6,22,6,,0.00,6,Thunderstorm,196
2012-8-7,87,80,74,75,73,72,89,75,54,29.89,29.84,29.78,12,8,6,22,6,,0.00,6,Rain,235
2012-8-8,91,82,72,76,73,71,94,74,47,29.90,29.83,29.75,12,7,1,8,2,,0.08,7,Fog-Rain,209
2012-8-9,92,82,73,75,73,70,100,80,39,29.86,29.81,29.76,12,6,0,14,5,,0.51,6,Fog-Rain-Thunderstorm,98
2012-8-10,87,80,72,75,73,70,94,78,58,29.91,29.86,29.81,12,8,6,14,6,,0.00,6,Rain-Thunderstorm,207
2012-8-11,91,82,72,76,73,71,94,78,53,29.93,29.89,29.83,12,7,2,12,4,,0.16,7,Rain-Thunderstorm,183
2012-8-12,89,80,71,75,72,68,100,74,51,29.91,29.85,29.80,12,7,2,29,7,,0.00,7,,138
2012-8-13,93,83,73,72,68,64,83,54,34,29.92,29.86,29.80,12,8,6,27,10,,0.00,4,,75
2012-8-14,90,80,70,73,72,68,89,75,53,29.94,29.87,29.81,12,8,6,12,4,,0.00,6,Rain,164
2012-8-15,88,80,72,75,72,68,100,83,49,29.94,29.89,29.84,12,6,0,9,5,,0.00,5,Fog-Rain,29
2012-8-16,89,80,72,75,74,72,94,78,58,29.94,29.91,29.86,12,6,0,9,6,,0.01,6,Fog,202
2012-8-17,86,80,73,74,72,70,94,78,56,29.94,29.90,29.87,12,8,6,15,4,,0.08,6,Rain-Thunderstorm,117
2012-8-18,86,78,71,73,72,70,94,70,53,29.95,29.90,29.85,12,8,6,11,6,,0.00,6,,141
2012-8-19,91,82,72,75,72,68,94,68,49,29.98,29.92,29.88,12,7,6,10,4,,0.00,5,,299
2012-8-20,91,82,72,75,73,69,94,72,41,29.97,29.90,29.83,12,8,6,12,5,,0.04,6,Rain-Thunderstorm,219
2012-8-21,90,80,71,75,72,70,94,82,52,29.93,29.89,29.84,12,6,2,22,6,,0.00,6,Rain-Thunderstorm,115
2012-8-22,90,80,71,77,72,70,100,71,44,29.96,29.89,29.81,12,6,0,18,5,,0.00,6,Fog,74
2012-8-23,89,80,72,75,73,71,94,72,49,29.93,29.87,29.80,12,8,6,8,4,,0.00,6,,201
2012-8-24,89,80,72,75,73,72,94,73,49,29.91,29.83,29.73,12,6,1,20,5,,0.00,6,,273
2012-8-25,86,80,74,75,74,73,94,85,69,29.85,29.81,29.78,12,7,4,16,6,,1.30,6,Fog-Rain-Thunderstorm,120
2012-8-26,86,79,72,75,74,72,94,83,66,29.90,29.86,29.81,12,6,0,10,3,,0.00,6,Fog-Rain,143
2012-8-27,87,80,73,77,74,71,100,85,64,29.91,29.86,29.79,12,6,0,29,4,,0.00,6,Fog-Rain-Thunderstorm,175
2012-8-28,90,82,73,77,74,72,94,75,49,29.90,29.84,29.79,12,7,5,20,6,,0.00,6,Fog,106
2012-8-29,91,81,71,76,72,68,94,77,49,29.89,29.82,29.73,12,6,0,15,3,,1.06,7,Rain-Thunderstorm,106
2012-8-30,86,78,70,77,72,70,100,87,66,29.92,29.87,29.82,12,6,0,16,4,,0.71,7,Rain-Thunderstorm,57
2012-8-31,87,79,71,75,73,70,100,82,58,29.93,29.90,29.86,12,8,6,12,6,,0.12,6,Rain-Thunderstorm,170